createdAt,value
2019-02-15T15:28:26.913Z,2.31
2019-02-15T15:29:27.186Z,1.81
2019-02-15T15:30:26.829Z,1.64
2019-02-15T15:31:27.326Z,1.45
2019-02-15T15:32:26.850Z,2.65
2019-02-15T15:33:26.888Z,1.02
2019-02-15T15:43:26.065Z,2.71
2019-02-15T15:44:26.375Z,1.27
2019-02-15T15:45:26.354Z,1.54
2019-02-15T15:46:31.891Z,1.69
2019-02-15T15:47:26.289Z,1.16
2019-02-15T15:48:26.366Z,2.21
2019-02-15T15:49:26.075Z,1.15
2019-02-15T15:50:26.284Z,1.75
2019-02-15T15:51:26.113Z,2.01
2019-02-15T15:52:26.086Z,1.48
2019-02-15T15:53:26.120Z,1.43
2019-02-15T15:54:26.098Z,1.67
2019-02-15T15:55:26.096Z,1.70
2019-02-15T15:56:26.075Z,2.19
2019-02-15T15:57:26.485Z,1.68
2019-02-15T15:58:26.098Z,1.20
2019-02-15T15:59:26.052Z,1.19
2019-02-15T16:00:26.379Z,2.15
2019-02-15T16:01:26.060Z,1.44
2019-02-15T16:02:26.447Z,2.29
2019-02-15T16:03:26.363Z,1.67
2019-02-15T16:04:26.070Z,1.34
2019-02-15T16:05:27.956Z,0.99
2019-02-15T16:06:26.055Z,1.14
2019-02-15T16:07:26.375Z,1.03
2019-02-15T16:08:26.317Z,1.22
2019-02-15T16:09:26.395Z,0.74
2019-02-15T16:10:26.577Z,1.08
2019-02-15T16:11:26.646Z,1.09
2019-02-15T16:12:26.102Z,0.43
2019-02-15T16:13:26.135Z,0.49
2019-02-15T16:14:26.114Z,0.67
2019-02-15T16:15:26.097Z,0.52
2019-02-15T16:16:26.199Z,0.93
2019-02-15T16:17:26.108Z,1.20
2019-02-15T16:18:33.072Z,1.00
2019-02-15T16:19:26.095Z,1.33
2019-02-15T16:20:26.451Z,1.24
2019-02-15T16:21:26.397Z,0.89
2019-02-15T16:22:26.184Z,1.61
2019-02-15T16:23:26.109Z,1.30
2019-02-15T16:24:26.109Z,0.76
2019-02-15T16:25:26.090Z,0.65
2019-02-15T16:26:26.435Z,0.74
2019-02-15T16:27:26.103Z,0.99
2019-02-15T16:28:26.498Z,0.45
2019-02-15T16:29:26.107Z,0.67
2019-02-15T16:30:26.433Z,0.32
2019-02-15T16:31:26.199Z,0.34
2019-02-15T16:32:26.254Z,0.19
2019-02-15T16:33:26.493Z,0.40
2019-02-15T16:34:26.077Z,0.00
2019-02-15T16:35:26.108Z,0.00
2019-02-15T16:36:26.886Z,0.00
2019-02-15T16:37:30.733Z,0.00
2019-02-15T16:38:26.145Z,0.00
2019-02-15T16:39:26.158Z,0.00
2019-02-15T16:40:26.111Z,0.00
2019-02-15T16:41:26.153Z,0.00
2019-02-15T16:42:26.161Z,0.00
2019-02-15T16:43:26.107Z,0.00
2019-02-15T16:44:26.167Z,0.51
2019-02-15T16:45:27.049Z,0.38
2019-02-15T16:46:26.415Z,0.17
2019-02-15T16:47:26.431Z,0.00
2019-02-15T16:48:26.090Z,0.00
2019-02-15T16:49:26.145Z,0.00
2019-02-15T16:50:26.387Z,0.00
2019-02-15T16:51:26.125Z,0.06
2019-02-15T16:52:26.183Z,0.12
2019-02-15T16:53:26.129Z,0.00
2019-02-15T16:54:26.185Z,0.17
2019-02-15T16:55:26.428Z,0.00
2019-02-15T16:56:26.153Z,0.00
2019-02-15T16:57:26.473Z,0.06
2019-02-15T16:58:26.136Z,0.11
2019-02-15T16:59:26.488Z,0.00
2019-02-15T17:00:26.127Z,0.00
2019-02-15T17:01:26.122Z,0.00
2019-02-15T17:02:26.159Z,0.00
2019-02-15T17:03:26.477Z,0.00
2019-02-15T17:04:26.529Z,0.00
2019-02-15T17:05:26.135Z,0.00
2019-02-15T17:06:26.483Z,0.00
2019-02-15T17:07:27.193Z,0.00
2019-02-15T17:08:26.170Z,0.00
2019-02-15T17:09:26.163Z,0.00
2019-02-15T17:10:26.119Z,0.00
2019-02-15T17:11:26.405Z,0.00
2019-02-15T17:12:26.478Z,0.00
2019-02-15T17:13:26.437Z,0.00
2019-02-15T17:14:26.197Z,0.00
2019-02-15T17:15:26.505Z,0.00
2019-02-15T17:16:26.482Z,0.00
2019-02-15T17:17:26.656Z,0.00
2019-02-15T17:18:26.916Z,0.00
2019-02-15T17:19:26.296Z,0.00
2019-02-15T17:20:26.141Z,0.00
2019-02-15T17:21:26.627Z,0.00
2019-02-15T17:22:26.157Z,0.10
2019-02-15T17:23:26.631Z,0.03
2019-02-15T17:24:26.201Z,0.00
2019-02-15T17:25:26.477Z,0.00
2019-02-15T17:26:26.146Z,0.00
2019-02-15T17:27:26.506Z,0.00
2019-02-15T17:28:26.480Z,0.00
2019-02-15T17:29:26.187Z,0.00
2019-02-15T17:30:26.529Z,0.00
2019-02-15T17:31:26.483Z,0.00
2019-02-15T17:32:26.186Z,0.00
2019-02-15T17:33:26.414Z,0.00
2019-02-15T17:34:26.161Z,0.00
2019-02-15T17:35:26.437Z,0.00
2019-02-15T17:36:26.157Z,0.00
2019-02-15T17:37:26.203Z,0.00
2019-02-15T17:38:28.841Z,0.00
2019-02-15T17:39:29.833Z,0.00
2019-02-15T17:40:26.279Z,0.09
2019-02-15T17:41:27.609Z,0.00
2019-02-15T17:42:26.203Z,0.00
2019-02-15T17:43:26.211Z,0.00
2019-02-15T17:44:26.536Z,0.00
2019-02-15T17:45:26.551Z,0.00
2019-02-15T17:46:26.508Z,0.00
2019-02-15T17:47:26.240Z,0.00
2019-02-15T17:48:26.164Z,0.00
2019-02-15T17:49:26.501Z,0.00
2019-02-15T17:50:26.189Z,0.00
2019-02-15T17:51:26.173Z,0.00
2019-02-15T17:52:26.450Z,0.00
2019-02-15T17:53:26.181Z,0.00
2019-02-15T17:54:26.581Z,0.00
2019-02-15T17:55:26.564Z,0.00
2019-02-15T17:56:26.542Z,0.00
2019-02-15T17:57:26.189Z,0.00
2019-02-15T17:58:26.575Z,0.00
2019-02-15T17:59:26.198Z,0.00
2019-02-15T18:00:26.240Z,0.16
2019-02-15T18:01:26.356Z,0.00
2019-02-15T18:02:26.497Z,0.00
2019-02-15T18:03:26.198Z,0.13
2019-02-15T18:04:26.334Z,0.06
2019-02-15T18:05:26.192Z,0.10
2019-02-15T18:06:26.181Z,0.00
2019-02-15T18:07:26.565Z,0.04
2019-02-15T18:08:26.235Z,0.00
2019-02-15T18:09:26.228Z,0.00
2019-02-15T18:10:26.595Z,0.00
2019-02-15T18:11:26.247Z,0.00
2019-02-15T18:12:26.623Z,0.00
2019-02-15T18:13:26.325Z,0.00
2019-02-15T18:14:26.523Z,0.00
2019-02-15T18:15:26.228Z,0.00
2019-02-15T18:16:26.542Z,0.00
2019-02-15T18:17:26.515Z,0.00
2019-02-15T18:18:26.216Z,0.00
2019-02-15T18:19:26.557Z,0.00
2019-02-15T18:20:26.223Z,0.00
2019-02-15T18:21:26.561Z,0.13
2019-02-15T18:22:26.238Z,0.02
2019-02-15T18:23:26.213Z,0.00
2019-02-15T18:24:26.680Z,0.00
2019-02-15T18:25:26.457Z,0.00
2019-02-15T18:26:26.236Z,0.00
2019-02-15T18:27:26.508Z,0.00
2019-02-15T18:28:26.228Z,0.00
2019-02-15T18:29:26.233Z,0.00
2019-02-15T18:30:26.500Z,0.00
2019-02-15T18:31:26.218Z,0.00
2019-02-15T18:32:26.565Z,0.00
2019-02-15T18:33:26.230Z,0.00
2019-02-15T18:34:29.634Z,0.00
2019-02-15T18:35:26.643Z,0.00
2019-02-15T18:36:26.258Z,0.06
2019-02-15T18:37:26.209Z,0.00
2019-02-15T18:38:26.238Z,0.00
2019-02-15T18:39:26.544Z,0.00
2019-02-15T18:40:26.219Z,0.00
2019-02-15T18:41:26.276Z,0.00
2019-02-15T18:42:26.246Z,0.00
2019-02-15T18:43:26.243Z,0.00
2019-02-15T18:44:26.238Z,0.00
2019-02-15T18:45:26.217Z,0.00
2019-02-15T18:46:26.636Z,0.00
2019-02-15T18:47:26.484Z,0.00
2019-02-15T18:48:26.514Z,0.00
2019-02-15T18:49:26.274Z,0.00
2019-02-15T18:50:26.559Z,0.00
2019-02-15T18:51:26.252Z,0.00
2019-02-15T18:52:26.245Z,0.00
2019-02-15T18:53:26.261Z,0.00
2019-02-15T18:54:26.531Z,0.00
2019-02-15T18:55:26.544Z,0.05
2019-02-15T18:56:26.549Z,0.00
2019-02-15T18:57:26.228Z,0.00
2019-02-15T18:58:26.266Z,0.00
2019-02-15T18:59:26.256Z,0.00
2019-02-15T19:00:26.399Z,0.00
2019-02-15T19:01:29.206Z,0.00
2019-02-15T19:02:26.263Z,0.00
2019-02-15T19:03:26.427Z,0.00
2019-02-15T19:04:26.506Z,0.00
2019-02-15T19:05:26.312Z,0.00
2019-02-15T19:06:26.291Z,0.00
2019-02-15T19:07:26.232Z,0.00
2019-02-15T19:08:26.347Z,0.00
2019-02-15T19:09:26.566Z,0.00
2019-02-15T19:10:27.963Z,0.00
2019-02-15T19:11:26.287Z,0.00
2019-02-15T19:12:26.552Z,0.00
2019-02-15T19:13:26.552Z,0.00
2019-02-15T19:14:26.601Z,0.00
2019-02-15T19:15:26.274Z,0.00
2019-02-15T19:16:26.537Z,0.00
2019-02-15T19:17:26.307Z,0.00
2019-02-15T19:18:26.335Z,0.00
2019-02-15T19:19:29.044Z,0.00
2019-02-15T19:20:26.297Z,0.00
2019-02-15T19:21:26.604Z,0.00
2019-02-15T19:22:26.300Z,0.00
2019-02-15T19:23:26.268Z,0.00
2019-02-15T19:24:29.226Z,0.00
2019-02-15T19:25:26.280Z,0.00
2019-02-15T19:26:26.248Z,0.00
2019-02-15T19:27:27.544Z,0.00
2019-02-15T19:28:26.286Z,0.00
2019-02-15T19:29:26.638Z,0.00
2019-02-15T19:30:26.254Z,0.00
2019-02-15T19:31:26.460Z,0.00
2019-02-15T19:32:27.266Z,0.00
2019-02-15T19:33:26.590Z,0.00
2019-02-15T19:34:27.030Z,0.00
2019-02-15T19:35:26.260Z,0.00
2019-02-15T19:36:26.588Z,0.00
2019-02-15T19:37:26.614Z,0.00
2019-02-15T19:38:26.269Z,0.00
2019-02-15T19:39:26.314Z,0.00
2019-02-15T19:40:26.278Z,0.00
2019-02-15T19:41:26.306Z,0.00
2019-02-15T19:42:26.288Z,0.00
2019-02-15T19:43:26.264Z,0.00
2019-02-15T19:44:26.319Z,0.00
2019-02-15T19:45:26.277Z,0.00
2019-02-15T19:46:26.280Z,0.00
2019-02-15T19:47:26.307Z,0.00
2019-02-15T19:48:26.262Z,0.00
2019-02-15T19:49:26.570Z,0.00
2019-02-15T19:50:26.264Z,0.00
2019-02-15T19:51:26.331Z,0.00
2019-02-15T19:52:26.581Z,0.00
2019-02-15T19:53:26.595Z,0.00
2019-02-15T19:54:27.183Z,0.00
2019-02-15T19:55:26.605Z,0.00
2019-02-15T19:56:26.294Z,0.00
2019-02-15T19:57:26.313Z,0.00
2019-02-15T19:58:31.860Z,0.00
2019-02-15T19:59:26.372Z,0.00
2019-02-15T20:00:27.565Z,0.00
2019-02-15T20:01:26.599Z,0.00
2019-02-15T20:02:26.294Z,0.00
2019-02-15T20:03:26.653Z,0.00
2019-02-15T20:04:26.339Z,0.00
2019-02-15T20:05:26.298Z,0.00
2019-02-15T20:06:26.559Z,0.00
2019-02-15T20:07:26.308Z,0.00
2019-02-15T20:08:26.626Z,0.00
2019-02-15T20:09:26.306Z,0.00
2019-02-15T20:10:26.626Z,0.00
2019-02-15T20:11:26.640Z,0.00
2019-02-15T20:12:26.290Z,0.00
2019-02-15T20:13:26.622Z,0.00
2019-02-15T20:14:26.590Z,0.00
2019-02-15T20:15:27.107Z,0.00
2019-02-15T20:16:26.595Z,0.00
2019-02-15T20:17:26.296Z,0.00
2019-02-15T20:18:26.323Z,0.00
2019-02-15T20:19:26.645Z,0.00
2019-02-15T20:20:26.598Z,0.00
2019-02-15T20:21:26.335Z,0.00
2019-02-15T20:22:26.319Z,0.00
2019-02-15T20:23:26.324Z,0.00
2019-02-15T20:24:26.357Z,0.00
2019-02-15T20:25:26.639Z,0.00
2019-02-15T20:26:26.604Z,0.00
2019-02-15T20:27:26.570Z,0.00
2019-02-15T20:28:26.296Z,0.56
2019-02-15T20:29:26.362Z,0.43
2019-02-15T20:30:26.364Z,0.00
2019-02-15T20:31:26.683Z,0.37
2019-02-15T20:32:26.316Z,0.04
2019-02-15T20:33:26.592Z,0.00
2019-02-15T20:34:26.368Z,0.00
2019-02-15T20:35:26.323Z,0.00
2019-02-15T20:36:26.576Z,0.00
2019-02-15T20:37:26.642Z,0.00
2019-02-15T20:38:26.380Z,0.00
2019-02-15T20:39:26.813Z,0.00
2019-02-15T20:40:26.389Z,0.00
2019-02-15T20:41:26.634Z,0.00
2019-02-15T20:42:26.657Z,0.00
2019-02-15T20:43:26.322Z,0.00
2019-02-15T20:44:26.358Z,0.20
2019-02-15T20:45:26.332Z,0.58
2019-02-15T20:46:26.305Z,0.74
2019-02-15T20:47:26.651Z,0.19
2019-02-15T20:48:26.340Z,0.22
2019-02-15T20:49:26.381Z,0.24
2019-02-15T20:50:26.338Z,0.73
2019-02-15T20:51:26.350Z,0.89
2019-02-15T20:52:26.310Z,0.77
2019-02-15T20:53:26.349Z,0.55
2019-02-15T20:54:26.374Z,0.29
2019-02-15T20:55:26.698Z,0.44
2019-02-15T20:56:26.323Z,0.00
2019-02-15T20:57:26.626Z,0.00
2019-02-15T20:58:26.340Z,0.05
2019-02-15T20:59:26.663Z,0.20
2019-02-15T21:00:29.980Z,0.07
2019-02-15T21:01:26.963Z,0.00
2019-02-15T21:02:26.680Z,0.00
2019-02-15T21:03:26.628Z,0.00
2019-02-15T21:04:26.378Z,0.24
2019-02-15T21:05:26.358Z,0.13
2019-02-15T21:06:26.362Z,0.00
2019-02-15T21:07:26.341Z,0.24
2019-02-15T21:08:26.633Z,0.69
2019-02-15T21:09:26.671Z,0.73
2019-02-15T21:10:26.314Z,0.00
2019-02-15T21:11:26.676Z,0.00
2019-02-15T21:12:26.346Z,0.00
2019-02-15T21:13:26.365Z,0.00
2019-02-15T21:14:26.386Z,0.00
2019-02-15T21:15:26.385Z,0.00
2019-02-15T21:16:26.612Z,0.00
2019-02-15T21:17:26.337Z,0.00
2019-02-15T21:18:26.652Z,0.00
2019-02-15T21:19:26.395Z,0.00
2019-02-15T21:20:26.692Z,0.00
2019-02-15T21:21:26.339Z,0.00
2019-02-15T21:22:26.343Z,0.00
2019-02-15T21:23:27.181Z,0.00
2019-02-15T21:24:26.388Z,0.04
2019-02-15T21:25:27.820Z,0.00
2019-02-15T21:26:26.364Z,0.02
2019-02-15T21:27:26.701Z,0.27
2019-02-15T21:28:26.365Z,0.41
2019-02-15T21:29:26.754Z,0.41
2019-02-15T21:30:26.437Z,0.59
2019-02-15T21:31:26.408Z,0.13
2019-02-15T21:32:26.370Z,0.17
2019-02-15T21:33:26.379Z,0.04
2019-02-15T21:34:26.403Z,0.00
2019-02-15T21:35:26.661Z,0.00
2019-02-15T21:36:26.707Z,0.00
2019-02-15T21:37:26.662Z,0.01
2019-02-15T21:38:26.415Z,0.25
2019-02-15T21:39:26.381Z,0.14
2019-02-15T21:40:26.395Z,0.00
2019-02-15T21:41:26.636Z,0.00
2019-02-15T21:42:26.416Z,0.00
2019-02-15T21:43:26.664Z,0.00
2019-02-15T21:44:26.389Z,0.00
2019-02-15T21:45:26.389Z,0.00
2019-02-15T21:46:26.405Z,0.00
2019-02-15T21:47:26.375Z,0.00
2019-02-15T21:48:26.365Z,0.00
2019-02-15T21:49:26.667Z,0.00
2019-02-15T21:50:26.735Z,0.02
2019-02-15T21:51:26.393Z,0.14
2019-02-15T21:52:26.372Z,0.00
2019-02-15T21:53:26.360Z,0.00
2019-02-15T21:54:26.421Z,0.00
2019-02-15T21:55:26.437Z,0.00
2019-02-15T21:56:26.655Z,0.00
2019-02-15T21:57:26.711Z,0.00
2019-02-15T21:58:26.407Z,0.21
2019-02-15T21:59:26.743Z,0.30
2019-02-15T22:00:26.703Z,0.00
2019-02-15T22:01:26.376Z,0.00
2019-02-15T22:02:26.655Z,0.00
2019-02-15T22:03:26.400Z,0.00
2019-02-15T22:04:26.681Z,0.00
2019-02-15T22:05:26.654Z,0.00
2019-02-15T22:06:27.846Z,0.00
2019-02-15T22:07:26.691Z,0.00
2019-02-15T22:08:26.442Z,0.00
2019-02-15T22:09:26.742Z,0.00
2019-02-15T22:10:26.731Z,0.00
2019-02-15T22:11:26.391Z,0.00
2019-02-15T22:12:26.430Z,0.00
2019-02-15T22:13:26.395Z,0.00
2019-02-15T22:14:26.762Z,0.00
2019-02-15T22:15:26.395Z,0.00
2019-02-15T22:16:26.425Z,0.00
2019-02-15T22:17:26.698Z,0.00
2019-02-15T22:18:26.429Z,0.00
2019-02-15T22:19:26.423Z,0.00
2019-02-15T22:20:27.104Z,0.00
2019-02-15T22:21:26.403Z,0.00
2019-02-15T22:22:26.755Z,0.00
2019-02-15T22:23:26.583Z,0.00
2019-02-15T22:24:26.482Z,0.00
2019-02-15T22:25:26.429Z,0.00
2019-02-15T22:26:26.443Z,0.00
2019-02-15T22:27:26.409Z,0.00
2019-02-15T22:28:26.415Z,0.00
2019-02-15T22:29:26.783Z,0.00
2019-02-15T22:30:27.079Z,0.00
2019-02-15T22:31:26.445Z,0.00
2019-02-15T22:32:26.433Z,0.00
2019-02-15T22:33:26.421Z,0.00
2019-02-15T22:34:26.459Z,0.00
2019-02-15T22:35:26.431Z,0.00
2019-02-15T22:36:26.768Z,0.00
2019-02-15T22:37:26.434Z,0.00
2019-02-15T22:38:26.417Z,0.00
2019-02-15T22:39:26.831Z,0.00
2019-02-15T22:40:26.446Z,0.00
2019-02-15T22:41:26.438Z,0.00
2019-02-15T22:42:26.667Z,0.00
2019-02-15T22:43:26.388Z,0.00
2019-02-15T22:44:26.754Z,0.00
2019-02-15T22:45:26.694Z,0.00
2019-02-15T22:46:26.460Z,0.00
2019-02-15T22:47:26.714Z,0.00
2019-02-15T22:48:26.451Z,0.00
2019-02-15T22:49:26.771Z,0.00
2019-02-15T22:50:35.303Z,0.00
2019-02-15T22:51:26.693Z,0.00
2019-02-15T22:52:26.773Z,0.00
2019-02-15T22:53:26.731Z,0.00
2019-02-15T22:54:26.793Z,0.00
2019-02-15T22:55:26.789Z,0.00
2019-02-15T22:56:26.461Z,0.00
2019-02-15T22:57:26.701Z,0.00
2019-02-15T22:58:26.778Z,0.00
2019-02-15T22:59:26.756Z,0.00
2019-02-15T23:00:26.449Z,0.00
2019-02-15T23:01:26.438Z,0.00
2019-02-15T23:02:26.735Z,0.00
2019-02-15T23:03:26.450Z,0.00
2019-02-15T23:04:26.494Z,0.00
2019-02-15T23:05:26.747Z,0.00
2019-02-15T23:06:26.437Z,0.00
2019-02-15T23:07:26.452Z,0.00
2019-02-15T23:08:26.481Z,0.00
2019-02-15T23:09:26.473Z,0.00
2019-02-15T23:10:26.442Z,0.00
2019-02-15T23:11:26.467Z,0.00
2019-02-15T23:12:26.450Z,0.00
2019-02-15T23:13:26.799Z,0.00
2019-02-15T23:14:27.142Z,0.00
2019-02-15T23:15:27.323Z,0.00
2019-02-15T23:16:26.480Z,0.00
2019-02-15T23:17:26.757Z,0.00
2019-02-15T23:18:26.505Z,0.00
2019-02-15T23:19:26.483Z,0.00
2019-02-15T23:20:26.441Z,0.00
2019-02-15T23:21:26.453Z,0.00
2019-02-15T23:22:26.468Z,0.00
2019-02-15T23:23:26.495Z,0.00
2019-02-15T23:24:26.854Z,0.00
2019-02-15T23:25:26.848Z,0.00
2019-02-15T23:26:26.485Z,0.00
2019-02-15T23:27:26.458Z,0.00
2019-02-15T23:28:26.486Z,0.00
2019-02-15T23:29:26.508Z,0.00
2019-02-15T23:30:26.459Z,0.00
2019-02-15T23:31:26.473Z,0.00
2019-02-15T23:32:26.788Z,0.00
2019-02-15T23:33:26.469Z,0.00
2019-02-15T23:34:26.547Z,0.00
2019-02-15T23:35:26.795Z,0.00
2019-02-15T23:36:26.820Z,0.00
2019-02-15T23:37:26.460Z,0.00
2019-02-15T23:38:26.821Z,0.00
2019-02-15T23:39:26.764Z,0.00
2019-02-15T23:40:26.720Z,0.00
2019-02-15T23:41:26.491Z,0.00
2019-02-15T23:42:26.533Z,0.00
2019-02-15T23:43:26.496Z,0.00
2019-02-15T23:44:26.814Z,0.00
2019-02-15T23:45:26.516Z,0.00
2019-02-15T23:46:26.745Z,0.00
2019-02-15T23:47:26.527Z,0.00
2019-02-15T23:48:26.782Z,0.00
2019-02-15T23:49:26.509Z,0.00
2019-02-15T23:50:26.478Z,0.00
2019-02-15T23:51:26.483Z,0.00
2019-02-15T23:52:26.793Z,0.00
2019-02-15T23:53:26.963Z,0.00
2019-02-15T23:54:26.825Z,0.00
2019-02-15T23:55:26.490Z,0.00
2019-02-15T23:56:26.506Z,0.00
2019-02-15T23:57:26.526Z,0.00
2019-02-15T23:58:26.742Z,0.00
2019-02-15T23:59:27.346Z,0.00
